Englewood Beach, Florida
Current Conditions -  °F | °C
As of 10:53 PM on Saturday 25 Oct 2014 (Local Time) from KPGD Reporting Station
Clear Clear  
Wind Chill: 66°   Ceiling: Unl
Heat Index: 66°   Visibility: 10mi
Dew Point: 58°   Wind: 7mph
Humidity: 75%   Direction: 350°N
Pressure: 30"   Gusts: NA
Location:  26.9866°N, 82.345°W
Report Text: KPGD 260253Z AUTO 35006KT 10SM CLR 19/14 A3000 RMK AO2 SLP160 T01890144 53013
Loading
Personal Weather Stations






























Interactive Weather Map
Tropical Storm Tracking
New forecast layout! Learn more

10-Day Weather Forecast

Advertisements
Track Severe Weather on mobile